KBBB/BBB METAR and TAF weather

Enter ICAO airport designator
Station Type Date Time Source
KBBB METAR 2020/09/22 00:35 UTC NOAA

KBBB 220035Z AUTO 18003KT 10SM CLR 19/13 A3005 RMK AO2


Station Type Date Time Source
KBBB Decoded METAR 2020/09/22 00:35 UTC NOAA

Benson Municipal, MN, United States (KBBB) 45-19N 095-39W
Sep 21, 2020 - 08:35 PM EDT / 2020.09.22 0035 UTC
Wind: from the S (180 degrees) at 3 MPH (3 KT):0
Visibility: 10 mile(s):0
Sky conditions: clear
Temperature: 66 F (19 C)
Dew Point: 55 F (13 C)
Relative Humidity: 68%
Pressure (altimeter): 30.05 in. Hg (1017 hPa)
ob: KBBB 220035Z AUTO 18003KT 10SM CLR 19/13 A3005 RMK AO2
cycle: 0

Station Type Date Time Source
KBBB TAF UTC NOAA

Error!

Example: see airport list